createdAt,value
2017-12-17T00:00:50.859Z,0
2017-12-17T00:02:01.133Z,0
2017-12-17T00:03:11.524Z,0
2017-12-17T00:04:21.839Z,0
2017-12-17T00:05:32.152Z,0
2017-12-17T00:06:42.417Z,0
2017-12-17T00:07:52.657Z,0
2017-12-17T00:09:02.715Z,0
2017-12-17T00:10:12.604Z,0
2017-12-17T00:11:22.373Z,0
2017-12-17T00:12:32.709Z,0
2017-12-17T00:13:42.732Z,0
2017-12-17T00:14:52.843Z,0
2017-12-17T00:16:02.851Z,0
2017-12-17T00:17:13.133Z,0
2017-12-17T00:18:23.129Z,0
2017-12-17T00:19:33.044Z,0
2017-12-17T00:20:43.325Z,0
2017-12-17T00:21:53.265Z,0
2017-12-17T00:23:03.341Z,0
2017-12-17T00:24:13.666Z,0
2017-12-17T00:25:23.948Z,0
2017-12-17T00:26:33.960Z,0
2017-12-17T00:27:44.229Z,0
2017-12-17T00:28:54.519Z,0
2017-12-17T00:30:04.783Z,0
2017-12-17T00:31:15.056Z,0
2017-12-17T00:32:25.059Z,0
2017-12-17T00:33:35.413Z,0
2017-12-17T00:34:45.677Z,0
2017-12-17T00:35:55.966Z,0
2017-12-17T00:37:06.210Z,0
2017-12-17T00:38:16.496Z,0
2017-12-17T00:39:26.499Z,0
2017-12-17T00:40:36.746Z,0
2017-12-17T00:41:47.020Z,0
2017-12-17T00:42:57.273Z,0
2017-12-17T00:44:07.536Z,0
2017-12-17T00:45:17.530Z,0
2017-12-17T00:46:27.895Z,0
2017-12-17T00:47:38.220Z,0
2017-12-17T00:48:48.799Z,0
2017-12-17T00:49:59.047Z,0
2017-12-17T00:51:09.077Z,0
2017-12-17T00:52:19.449Z,0
2017-12-17T00:53:29.712Z,0
2017-12-17T00:54:39.956Z,0
2017-12-17T00:55:50.209Z,0
2017-12-17T00:57:01.432Z,0
2017-12-17T00:58:11.487Z,0
2017-12-17T00:59:21.781Z,0
2017-12-17T01:00:32.055Z,0
2017-12-17T01:01:41.802Z,0
2017-12-17T01:02:52.052Z,0
2017-12-17T01:04:02.091Z,0
2017-12-17T01:05:12.352Z,0
2017-12-17T01:06:22.608Z,0
2017-12-17T01:07:32.855Z,0
2017-12-17T01:08:43.127Z,0
2017-12-17T01:09:53.447Z,0
2017-12-17T01:11:03.705Z,0
2017-12-17T01:12:13.718Z,0
2017-12-17T01:13:24.045Z,0
2017-12-17T01:14:34.558Z,0
2017-12-17T01:15:44.827Z,0
2017-12-17T01:16:55.083Z,0
2017-12-17T01:18:05.341Z,0
2017-12-17T01:19:15.605Z,0
2017-12-17T01:20:25.864Z,0
2017-12-17T01:21:36.116Z,0
2017-12-17T01:22:46.403Z,0
2017-12-17T01:23:56.643Z,0
2017-12-17T01:25:06.934Z,0
2017-12-17T01:26:16.934Z,0
2017-12-17T01:27:27.214Z,0
2017-12-17T01:28:37.465Z,0
2017-12-17T01:30:19.603Z,0
2017-12-17T01:31:29.893Z,0
2017-12-17T01:32:40.158Z,0
2017-12-17T01:33:50.163Z,0
2017-12-17T01:35:00.457Z,0
2017-12-17T01:36:10.709Z,0
2017-12-17T01:37:20.990Z,0
2017-12-17T01:38:30.966Z,0
2017-12-17T01:39:41.341Z,0
2017-12-17T01:40:51.639Z,0
2017-12-17T01:42:01.915Z,0
2017-12-17T01:43:12.164Z,0
2017-12-17T01:44:22.465Z,0
2017-12-17T01:45:32.549Z,0
2017-12-17T01:46:42.676Z,0
2017-12-17T01:47:52.927Z,0
2017-12-17T01:49:03.216Z,0
2017-12-17T01:50:13.514Z,0
2017-12-17T01:51:23.524Z,0
2017-12-17T01:52:33.860Z,0
2017-12-17T01:53:44.130Z,0
2017-12-17T01:54:54.380Z,0
2017-12-17T01:56:04.690Z,0
2017-12-17T01:57:14.701Z,0
2017-12-17T01:58:25.009Z,0
2017-12-17T01:59:35.313Z,0
2017-12-17T02:00:45.568Z,0
2017-12-17T02:01:55.823Z,0
2017-12-17T02:03:06.109Z,0
2017-12-17T02:04:16.653Z,0
2017-12-17T02:05:26.728Z,0
2017-12-17T02:06:37.040Z,0
2017-12-17T02:07:46.931Z,0
2017-12-17T02:08:56.962Z,0
2017-12-17T02:10:07.013Z,0
2017-12-17T02:11:16.938Z,0
2017-12-17T02:12:27.230Z,0
2017-12-17T02:13:37.266Z,0
2017-12-17T02:14:47.594Z,0
2017-12-17T02:15:57.859Z,0
2017-12-17T02:17:08.197Z,0
2017-12-17T02:18:18.458Z,0
2017-12-17T02:19:28.697Z,0
2017-12-17T02:20:39.017Z,0
2017-12-17T02:21:49.286Z,0
2017-12-17T02:22:59.543Z,0
2017-12-17T02:24:09.815Z,0
2017-12-17T02:25:20.140Z,0
2017-12-17T02:26:30.384Z,0
2017-12-17T02:27:40.394Z,0
2017-12-17T02:28:50.680Z,0
2017-12-17T02:30:00.929Z,0
2017-12-17T02:31:11.181Z,0
2017-12-17T02:32:21.470Z,0
2017-12-17T02:33:31.790Z,0
2017-12-17T02:34:41.854Z,0
2017-12-17T02:35:52.147Z,0
2017-12-17T02:37:03.108Z,0
2017-12-17T02:38:13.598Z,0
2017-12-17T02:39:23.739Z,0
2017-12-17T02:40:34.027Z,0
2017-12-17T02:41:44.259Z,0
2017-12-17T02:42:54.518Z,0
2017-12-17T02:44:04.801Z,0
2017-12-17T02:45:15.061Z,0
2017-12-17T02:46:25.367Z,0
2017-12-17T02:47:35.765Z,0
2017-12-17T02:48:46.089Z,0
2017-12-17T02:49:56.338Z,0
2017-12-17T02:51:05.963Z,0
2017-12-17T02:52:15.630Z,0
2017-12-17T02:53:25.525Z,0
2017-12-17T02:54:35.629Z,0
2017-12-17T02:55:45.904Z,0
2017-12-17T02:56:56.144Z,0
2017-12-17T02:58:05.791Z,0
2017-12-17T02:59:15.433Z,0
2017-12-17T03:00:25.765Z,0
2017-12-17T03:01:36.044Z,0
2017-12-17T03:02:46.317Z,0
2017-12-17T03:03:56.581Z,0
2017-12-17T03:05:06.581Z,0
2017-12-17T03:06:16.858Z,0
2017-12-17T03:07:27.106Z,0
2017-12-17T03:08:37.396Z,0
2017-12-17T03:09:47.461Z,0
2017-12-17T03:10:57.797Z,0
2017-12-17T03:12:08.052Z,0
2017-12-17T03:13:18.371Z,0
2017-12-17T03:14:28.614Z,0
2017-12-17T03:15:38.854Z,0
2017-12-17T03:16:49.098Z,0
2017-12-17T03:17:59.340Z,0
2017-12-17T03:19:09.358Z,0
2017-12-17T03:20:19.736Z,0
2017-12-17T03:21:29.979Z,0
2017-12-17T03:22:40.491Z,0
2017-12-17T03:23:50.361Z,0
2017-12-17T03:25:00.592Z,0
2017-12-17T03:26:10.832Z,0
2017-12-17T03:27:21.081Z,0
2017-12-17T03:28:31.058Z,0
2017-12-17T03:29:40.563Z,0
2017-12-17T03:30:50.828Z,0
2017-12-17T03:32:01.088Z,0
2017-12-17T03:33:11.409Z,0
2017-12-17T03:34:21.708Z,0
2017-12-17T03:35:32.004Z,0
2017-12-17T03:36:42.270Z,0
2017-12-17T03:37:52.559Z,0
2017-12-17T03:39:02.549Z,0
2017-12-17T03:40:12.940Z,0
2017-12-17T03:41:23.222Z,0
2017-12-17T03:42:33.473Z,0
2017-12-17T03:43:43.713Z,0
2017-12-17T03:44:53.953Z,0
2017-12-17T03:46:03.946Z,0
2017-12-17T03:47:14.236Z,0
2017-12-17T03:48:24.470Z,0
2017-12-17T03:49:34.715Z,0
2017-12-17T03:50:44.990Z,0
2017-12-17T03:51:55.241Z,0
2017-12-17T03:53:05.530Z,0
2017-12-17T03:54:16.030Z,0
2017-12-17T03:55:26.305Z,0
2017-12-17T03:56:37.529Z,0
2017-12-17T03:57:47.783Z,0
2017-12-17T03:58:57.890Z,0
2017-12-17T04:00:08.140Z,0
2017-12-17T04:01:18.461Z,0
2017-12-17T04:02:28.711Z,0
2017-12-17T04:03:38.993Z,0
2017-12-17T04:04:49.232Z,0
2017-12-17T04:05:59.531Z,0
2017-12-17T04:07:09.527Z,0
2017-12-17T04:08:19.773Z,0
2017-12-17T04:09:30.021Z,0
2017-12-17T04:10:40.278Z,0
2017-12-17T04:11:50.260Z,0
2017-12-17T04:13:00.236Z,0
2017-12-17T04:14:10.145Z,0
2017-12-17T04:15:20.328Z,0
2017-12-17T04:16:30.680Z,0
2017-12-17T04:17:40.916Z,0
2017-12-17T04:18:51.315Z,0
2017-12-17T04:20:01.441Z,0
2017-12-17T04:21:11.721Z,0
2017-12-17T04:22:21.984Z,0
2017-12-17T04:23:31.442Z,0
2017-12-17T04:24:41.443Z,0
2017-12-17T04:25:51.467Z,0
2017-12-17T04:27:01.484Z,0
2017-12-17T04:28:11.116Z,0
2017-12-17T04:29:21.382Z,0
2017-12-17T04:30:31.694Z,0
2017-12-17T04:31:41.982Z,0
2017-12-17T04:32:52.240Z,0
2017-12-17T04:34:02.522Z,0
2017-12-17T04:35:12.775Z,0
2017-12-17T04:36:22.762Z,0
2017-12-17T04:37:33.020Z,0
2017-12-17T04:38:43.264Z,0
2017-12-17T04:39:53.582Z,0
2017-12-17T04:41:03.853Z,0
2017-12-17T04:42:14.110Z,0
2017-12-17T04:43:25.308Z,0
2017-12-17T04:44:35.551Z,0
2017-12-17T04:45:45.809Z,0
2017-12-17T04:46:56.073Z,0
2017-12-17T04:48:06.171Z,0
2017-12-17T04:49:16.419Z,0
2017-12-17T04:50:26.651Z,0
2017-12-17T04:51:36.257Z,0
2017-12-17T04:52:46.267Z,0
2017-12-17T04:53:56.530Z,0
2017-12-17T04:55:06.525Z,0
2017-12-17T04:56:16.781Z,0
2017-12-17T04:57:26.507Z,0
2017-12-17T04:58:36.837Z,0
2017-12-17T04:59:46.923Z,0
2017-12-17T05:00:57.199Z,0
2017-12-17T05:02:07.495Z,0
2017-12-17T05:03:17.316Z,0
2017-12-17T05:04:26.952Z,0
2017-12-17T05:05:36.747Z,0
2017-12-17T05:06:47.079Z,0
2017-12-17T05:07:57.069Z,0
2017-12-17T05:09:07.333Z,0
2017-12-17T05:10:17.630Z,0
2017-12-17T05:11:27.870Z,0
2017-12-17T05:12:37.864Z,0
2017-12-17T05:13:48.216Z,0
2017-12-17T05:14:58.530Z,0
2017-12-17T05:16:08.509Z,0
2017-12-17T05:17:18.480Z,0
2017-12-17T05:18:28.760Z,0
2017-12-17T05:19:38.998Z,0
2017-12-17T05:20:49.262Z,0
2017-12-17T05:21:59.738Z,0
2017-12-17T05:23:10.003Z,0
2017-12-17T05:24:20.258Z,0
2017-12-17T05:25:30.380Z,0
2017-12-17T05:26:40.684Z,0
2017-12-17T05:27:50.972Z,0
2017-12-17T05:29:01.220Z,0
2017-12-17T05:30:11.466Z,0
2017-12-17T05:31:21.186Z,0
2017-12-17T05:32:31.427Z,0
2017-12-17T05:33:41.676Z,0
2017-12-17T05:34:51.923Z,0
2017-12-17T05:36:02.232Z,0
2017-12-17T05:37:12.508Z,0
2017-12-17T05:38:22.369Z,0
2017-12-17T05:39:32.688Z,0
2017-12-17T05:40:42.951Z,0
2017-12-17T05:41:52.961Z,0
2017-12-17T05:43:03.319Z,0
2017-12-17T05:44:13.578Z,0
2017-12-17T05:45:23.582Z,0
2017-12-17T05:46:33.895Z,0
2017-12-17T05:47:43.755Z,0
2017-12-17T05:48:53.998Z,0
2017-12-17T05:50:04.237Z,0
2017-12-17T05:51:14.487Z,0
2017-12-17T05:52:24.205Z,0
2017-12-17T05:53:34.461Z,0
2017-12-17T05:54:44.716Z,0
2017-12-17T05:55:54.442Z,0
2017-12-17T05:57:04.791Z,0
2017-12-17T05:58:15.175Z,0
2017-12-17T05:59:25.430Z,0
2017-12-17T06:00:35.704Z,0
2017-12-17T06:01:45.962Z,0
2017-12-17T06:02:56.240Z,0
2017-12-17T06:04:06.611Z,0
2017-12-17T06:05:16.918Z,0
2017-12-17T06:06:27.220Z,0
2017-12-17T06:07:37.524Z,0
2017-12-17T06:08:47.545Z,0
2017-12-17T06:09:57.927Z,0
2017-12-17T06:11:08.203Z,0
2017-12-17T06:12:18.452Z,0
2017-12-17T06:13:28.741Z,0
2017-12-17T06:14:38.979Z,0
2017-12-17T06:15:49.263Z,0
2017-12-17T06:16:59.006Z,0
2017-12-17T06:18:09.302Z,0
2017-12-17T06:19:19.276Z,0
2017-12-17T06:20:29.538Z,0
2017-12-17T06:21:39.803Z,0
2017-12-17T06:22:50.057Z,0
2017-12-17T06:24:00.309Z,0
2017-12-17T06:25:10.656Z,0
2017-12-17T06:26:20.650Z,0
2017-12-17T06:27:30.949Z,0
2017-12-17T06:28:41.309Z,0
2017-12-17T06:29:51.325Z,0
2017-12-17T06:31:01.603Z,0
2017-12-17T06:32:11.581Z,0
2017-12-17T06:33:21.845Z,0
2017-12-17T06:34:32.164Z,0
2017-12-17T06:35:42.510Z,0
2017-12-17T06:36:52.590Z,0
2017-12-17T06:38:02.877Z,0
2017-12-17T06:39:13.116Z,0
2017-12-17T06:40:23.036Z,0
2017-12-17T06:41:33.372Z,0
2017-12-17T06:42:43.705Z,0
2017-12-17T06:43:53.721Z,0
2017-12-17T06:45:04.037Z,0
2017-12-17T06:46:14.313Z,0
2017-12-17T06:47:24.338Z,0
2017-12-17T06:48:34.441Z,0
2017-12-17T06:49:44.737Z,0
2017-12-17T06:50:55.202Z,0
2017-12-17T06:52:05.483Z,0
2017-12-17T06:53:15.759Z,0
2017-12-17T06:54:26.002Z,0
2017-12-17T06:55:36.262Z,0
2017-12-17T06:56:46.660Z,0
2017-12-17T06:57:56.643Z,0
2017-12-17T06:59:07.059Z,0
2017-12-17T07:00:17.352Z,0
2017-12-17T07:01:27.330Z,0
2017-12-17T07:02:37.578Z,0
2017-12-17T07:03:47.821Z,0
2017-12-17T07:04:58.225Z,0
2017-12-17T07:06:08.500Z,0
2017-12-17T07:07:18.775Z,0
2017-12-17T07:08:29.035Z,0
2017-12-17T07:09:38.992Z,5
2017-12-17T07:10:49.319Z,5
2017-12-17T07:11:59.609Z,5
2017-12-17T07:13:10.819Z,5
2017-12-17T07:14:21.078Z,5
2017-12-17T07:15:31.348Z,5
2017-12-17T07:16:41.657Z,5
2017-12-17T07:17:51.931Z,5
2017-12-17T07:19:01.947Z,10
2017-12-17T07:20:11.912Z,10
2017-12-17T07:21:21.965Z,10
2017-12-17T07:22:32.224Z,10
2017-12-17T07:23:42.485Z,10
2017-12-17T07:24:52.473Z,15
2017-12-17T07:26:02.741Z,15
2017-12-17T07:27:13.076Z,15
2017-12-17T07:28:23.396Z,15
2017-12-17T07:29:33.274Z,15
2017-12-17T07:30:43.596Z,20
2017-12-17T07:31:53.514Z,20
2017-12-17T07:33:03.802Z,20
2017-12-17T07:34:13.554Z,20
2017-12-17T07:35:23.565Z,20
2017-12-17T07:36:33.859Z,20
2017-12-17T07:37:44.119Z,25
2017-12-17T07:38:54.413Z,25
2017-12-17T07:40:04.667Z,25
2017-12-17T07:41:14.789Z,25
2017-12-17T07:42:25.079Z,25
2017-12-17T07:43:35.320Z,25
2017-12-17T07:44:45.572Z,25
2017-12-17T07:45:55.657Z,25
2017-12-17T07:47:05.788Z,25
2017-12-17T07:48:15.787Z,25
2017-12-17T07:49:26.019Z,25
2017-12-17T07:50:36.087Z,25
2017-12-17T07:51:46.364Z,30
2017-12-17T07:52:56.607Z,30
2017-12-17T07:54:06.914Z,30
2017-12-17T07:55:16.906Z,30
2017-12-17T07:56:27.162Z,30
2017-12-17T07:57:37.503Z,30
2017-12-17T07:58:47.292Z,30
2017-12-17T07:59:57.291Z,30
2017-12-17T08:01:07.055Z,30
2017-12-17T08:02:17.323Z,30
2017-12-17T08:03:27.599Z,35
2017-12-17T08:04:37.851Z,35
2017-12-17T08:05:47.893Z,40
2017-12-17T08:06:57.943Z,40
2017-12-17T08:08:07.572Z,45
2017-12-17T08:09:17.873Z,50
2017-12-17T08:10:28.132Z,50
2017-12-17T08:11:38.545Z,55
2017-12-17T08:12:48.802Z,55
2017-12-17T08:13:59.092Z,55
2017-12-17T08:15:09.351Z,60
2017-12-17T08:16:19.362Z,60
2017-12-17T08:17:29.734Z,60
2017-12-17T08:18:40.020Z,60
2017-12-17T08:19:50.282Z,65
2017-12-17T08:21:00.783Z,65
2017-12-17T08:22:10.790Z,70
2017-12-17T08:23:21.251Z,65
2017-12-17T08:24:31.549Z,65
2017-12-17T08:25:41.811Z,65
2017-12-17T08:26:52.106Z,70
2017-12-17T08:28:01.796Z,70
2017-12-17T08:29:11.738Z,75
2017-12-17T08:30:21.693Z,85
2017-12-17T08:31:31.771Z,90
2017-12-17T08:32:42.125Z,100
2017-12-17T08:33:52.014Z,105
2017-12-17T08:35:02.400Z,115
2017-12-17T08:36:12.745Z,120
2017-12-17T08:37:23.015Z,125
2017-12-17T08:38:33.270Z,130
2017-12-17T08:39:43.579Z,135
2017-12-17T08:40:53.844Z,135
2017-12-17T08:42:03.856Z,130
2017-12-17T08:43:13.803Z,130
2017-12-17T08:44:24.185Z,135
2017-12-17T08:45:34.523Z,130
2017-12-17T08:46:44.856Z,130
2017-12-17T08:47:55.167Z,130
2017-12-17T08:49:05.185Z,125
2017-12-17T08:50:15.471Z,120
2017-12-17T08:51:25.746Z,120
2017-12-17T08:52:35.793Z,120
2017-12-17T08:53:46.062Z,120
2017-12-17T08:54:56.113Z,120
2017-12-17T08:56:06.473Z,120
2017-12-17T08:57:16.651Z,120
2017-12-17T08:58:27.005Z,110
2017-12-17T08:59:39.509Z,110
2017-12-17T09:00:49.841Z,105
2017-12-17T09:02:00.120Z,100
2017-12-17T09:03:10.385Z,90
2017-12-17T09:04:20.695Z,75
2017-12-17T09:05:31.082Z,70
2017-12-17T09:06:42.391Z,75
2017-12-17T09:07:54.429Z,70
2017-12-17T09:09:04.752Z,70
2017-12-17T09:10:15.014Z,80
2017-12-17T09:11:25.060Z,75
2017-12-17T09:12:36.419Z,65
2017-12-17T09:13:46.425Z,60
2017-12-17T09:14:56.535Z,50
2017-12-17T09:16:06.788Z,45
2017-12-17T09:17:16.796Z,40
2017-12-17T09:18:27.079Z,40
2017-12-17T09:19:38.725Z,45
2017-12-17T09:20:49.003Z,60
2017-12-17T09:21:59.068Z,55
2017-12-17T09:23:09.055Z,70
2017-12-17T09:24:19.350Z,75
2017-12-17T09:25:29.676Z,65
2017-12-17T09:26:39.611Z,55
2017-12-17T09:27:49.648Z,50
2017-12-17T09:28:59.612Z,45
2017-12-17T09:30:09.634Z,55
2017-12-17T09:31:19.939Z,65
2017-12-17T09:32:30.211Z,60
2017-12-17T09:33:40.249Z,60
2017-12-17T09:34:50.608Z,55
2017-12-17T09:36:00.938Z,60
2017-12-17T09:37:11.241Z,60
2017-12-17T09:38:21.272Z,65
2017-12-17T09:39:31.606Z,60
2017-12-17T09:40:41.849Z,50
2017-12-17T09:41:57.737Z,50
2017-12-17T09:43:08.343Z,55
2017-12-17T09:44:18.510Z,60
2017-12-17T09:45:28.865Z,60
2017-12-17T09:46:39.138Z,65
2017-12-17T09:47:50.457Z,70
2017-12-17T09:49:01.025Z,75
2017-12-17T09:50:11.312Z,75
2017-12-17T09:51:21.645Z,70
2017-12-17T09:52:31.912Z,80
2017-12-17T09:53:42.243Z,80
2017-12-17T09:54:52.532Z,75
2017-12-17T09:56:02.927Z,75
2017-12-17T09:57:13.236Z,75
2017-12-17T09:58:23.161Z,80
2017-12-17T09:59:32.912Z,75
2017-12-17T10:00:42.918Z,70
2017-12-17T10:01:52.726Z,65
2017-12-17T10:03:03.080Z,65
2017-12-17T10:04:13.607Z,65
2017-12-17T10:05:23.891Z,70
2017-12-17T10:06:34.209Z,80
2017-12-17T10:07:44.584Z,85
2017-12-17T10:08:54.486Z,90
2017-12-17T10:10:04.831Z,105
2017-12-17T10:11:15.117Z,95
2017-12-17T10:12:25.476Z,85
2017-12-17T10:13:35.517Z,85
2017-12-17T10:14:45.183Z,95
2017-12-17T10:15:55.464Z,90
2017-12-17T10:17:05.452Z,80
2017-12-17T10:18:15.760Z,75
2017-12-17T10:19:26.060Z,70
2017-12-17T10:20:36.013Z,65
2017-12-17T10:21:46.471Z,65
2017-12-17T10:22:56.726Z,60
2017-12-17T10:24:38.864Z,60
2017-12-17T10:25:49.178Z,55
2017-12-17T10:26:59.267Z,55
2017-12-17T10:28:09.575Z,50
2017-12-17T10:29:19.861Z,55
2017-12-17T10:30:29.925Z,50
2017-12-17T10:31:40.249Z,50
2017-12-17T10:32:50.588Z,55
2017-12-17T10:34:00.887Z,65
2017-12-17T10:35:10.909Z,80
2017-12-17T10:36:21.166Z,100
2017-12-17T10:37:31.488Z,105
2017-12-17T10:38:41.770Z,135
2017-12-17T10:39:52.116Z,175
2017-12-17T10:41:02.380Z,155
2017-12-17T10:42:12.093Z,130
2017-12-17T10:43:22.522Z,110
2017-12-17T10:44:32.804Z,105
2017-12-17T10:45:43.128Z,105
2017-12-17T10:46:53.398Z,95
2017-12-17T10:48:03.675Z,85
2017-12-17T10:49:14.089Z,80
2017-12-17T10:50:24.126Z,75
2017-12-17T10:51:34.384Z,80
2017-12-17T10:52:44.766Z,100
2017-12-17T10:53:54.778Z,125
2017-12-17T10:55:05.085Z,150
2017-12-17T10:56:15.398Z,165
2017-12-17T10:57:25.490Z,190
2017-12-17T10:58:35.610Z,210
2017-12-17T10:59:46.340Z,225
2017-12-17T11:00:57.602Z,230
2017-12-17T11:02:07.688Z,200
2017-12-17T11:03:17.967Z,175
2017-12-17T11:04:28.249Z,175
2017-12-17T11:05:38.824Z,195
2017-12-17T11:06:48.935Z,225
2017-12-17T11:07:59.238Z,220
2017-12-17T11:09:09.409Z,235
2017-12-17T11:10:19.690Z,245
2017-12-17T11:11:30.016Z,305
2017-12-17T11:12:40.398Z,395
2017-12-17T11:13:50.400Z,460
2017-12-17T11:15:00.706Z,490
2017-12-17T11:16:11.061Z,435
2017-12-17T11:17:21.106Z,390
2017-12-17T11:18:31.075Z,360
2017-12-17T11:19:42.323Z,405
2017-12-17T11:20:52.601Z,400
2017-12-17T11:22:02.906Z,390
2017-12-17T11:23:12.957Z,400
2017-12-17T11:24:23.281Z,415
2017-12-17T11:25:33.220Z,455
2017-12-17T11:26:43.550Z,400
2017-12-17T11:27:54.526Z,340
2017-12-17T11:29:04.431Z,340
2017-12-17T11:30:14.504Z,260
2017-12-17T11:31:24.785Z,265
2017-12-17T11:32:34.443Z,305
2017-12-17T11:33:44.519Z,280
2017-12-17T11:34:54.816Z,290
2017-12-17T11:36:04.964Z,245
2017-12-17T11:37:16.273Z,220
2017-12-17T11:38:26.550Z,235
2017-12-17T11:39:36.959Z,275
2017-12-17T11:40:46.883Z,360
2017-12-17T11:41:57.194Z,455
2017-12-17T11:43:07.478Z,360
2017-12-17T11:44:17.401Z,320
2017-12-17T11:45:27.749Z,300
2017-12-17T11:46:38.068Z,335
2017-12-17T11:47:48.357Z,365
2017-12-17T11:48:58.397Z,390
2017-12-17T11:50:08.737Z,385
2017-12-17T11:51:19.052Z,360
2017-12-17T11:52:29.513Z,300
2017-12-17T11:53:39.850Z,325
2017-12-17T11:54:49.917Z,375
2017-12-17T11:55:59.922Z,420
2017-12-17T11:57:10.232Z,410
2017-12-17T11:58:20.274Z,445
2017-12-17T11:59:30.579Z,440
2017-12-17T12:00:41.089Z,400
2017-12-17T12:01:51.372Z,360
2017-12-17T12:03:01.689Z,295
2017-12-17T12:04:12.029Z,275
2017-12-17T12:05:22.582Z,290
2017-12-17T12:06:33.586Z,285
2017-12-17T12:07:43.355Z,250
2017-12-17T12:08:53.648Z,205
2017-12-17T12:10:03.972Z,180
2017-12-17T12:11:14.264Z,210
2017-12-17T12:12:24.589Z,250
2017-12-17T12:13:34.975Z,265
2017-12-17T12:14:45.307Z,250
2017-12-17T12:15:55.607Z,220
2017-12-17T12:17:05.630Z,200
2017-12-17T12:18:15.907Z,185
2017-12-17T12:19:25.962Z,170
2017-12-17T12:20:36.077Z,165
2017-12-17T12:21:46.347Z,160
2017-12-17T12:22:56.399Z,160
2017-12-17T12:24:06.434Z,170
2017-12-17T12:25:16.774Z,175
2017-12-17T12:26:27.384Z,160
2017-12-17T12:27:37.694Z,135
2017-12-17T12:28:48.025Z,150
2017-12-17T12:29:58.349Z,165
2017-12-17T12:31:08.365Z,160
2017-12-17T12:32:18.457Z,165
2017-12-17T12:33:28.785Z,150
2017-12-17T12:34:39.090Z,120
2017-12-17T12:35:49.401Z,105
2017-12-17T12:36:59.712Z,90
2017-12-17T12:38:10.101Z,75
2017-12-17T12:39:20.425Z,65
2017-12-17T12:40:30.621Z,65
2017-12-17T12:41:40.758Z,60
2017-12-17T12:42:51.042Z,60
2017-12-17T12:44:01.338Z,65
2017-12-17T12:45:11.419Z,70
2017-12-17T12:46:21.718Z,60
2017-12-17T12:47:32.011Z,55
2017-12-17T12:48:42.273Z,50
2017-12-17T12:49:52.543Z,50
2017-12-17T12:51:03.084Z,45
2017-12-17T12:52:13.169Z,55
2017-12-17T12:53:23.579Z,60
2017-12-17T12:54:33.616Z,55
2017-12-17T12:55:43.915Z,50
2017-12-17T12:56:53.566Z,45
2017-12-17T12:58:03.903Z,45
2017-12-17T12:59:13.715Z,45
2017-12-17T13:00:23.997Z,50
2017-12-17T13:01:34.278Z,65
2017-12-17T13:02:44.566Z,75
2017-12-17T13:03:54.625Z,85
2017-12-17T13:05:04.902Z,95
2017-12-17T13:06:14.909Z,100
2017-12-17T13:07:24.921Z,95
2017-12-17T13:08:34.958Z,85
2017-12-17T13:09:45.245Z,80
2017-12-17T13:10:55.549Z,75
2017-12-17T13:12:05.849Z,70
2017-12-17T13:13:16.126Z,70
2017-12-17T13:14:26.148Z,70
2017-12-17T13:15:36.473Z,70
2017-12-17T13:16:46.781Z,65
2017-12-17T13:17:57.091Z,65
2017-12-17T13:19:07.396Z,65
2017-12-17T13:20:18.377Z,65
2017-12-17T13:21:28.345Z,65
2017-12-17T13:22:38.652Z,65
2017-12-17T13:23:48.968Z,60
2017-12-17T13:24:59.250Z,55
2017-12-17T13:26:10.023Z,55
2017-12-17T13:27:20.106Z,55
2017-12-17T13:28:30.381Z,60
2017-12-17T13:29:40.732Z,60
2017-12-17T13:30:51.088Z,60
2017-12-17T13:32:01.144Z,60
2017-12-17T13:33:11.462Z,65
2017-12-17T13:34:21.724Z,65
2017-12-17T13:35:31.746Z,60
2017-12-17T13:36:42.160Z,60
2017-12-17T13:37:52.072Z,60
2017-12-17T13:39:02.047Z,55
2017-12-17T13:40:12.051Z,60
2017-12-17T13:41:22.336Z,60
2017-12-17T13:42:32.642Z,60
2017-12-17T13:43:42.937Z,60
2017-12-17T13:44:52.973Z,60
2017-12-17T13:46:03.417Z,60
2017-12-17T13:47:13.793Z,60
2017-12-17T13:48:24.088Z,55
2017-12-17T13:49:34.162Z,55
2017-12-17T13:50:43.940Z,50
2017-12-17T13:51:54.220Z,45
2017-12-17T13:53:04.508Z,45
2017-12-17T13:54:15.779Z,40
2017-12-17T13:55:26.054Z,40
2017-12-17T13:56:36.371Z,40
2017-12-17T13:57:46.766Z,40
2017-12-17T13:58:56.848Z,35
2017-12-17T14:00:07.152Z,35
2017-12-17T14:01:17.695Z,35
2017-12-17T14:02:27.877Z,35
2017-12-17T14:03:38.211Z,35
2017-12-17T14:04:48.508Z,30
2017-12-17T14:05:58.412Z,30
2017-12-17T14:07:08.728Z,30
2017-12-17T14:08:18.792Z,30
2017-12-17T14:09:28.855Z,30
2017-12-17T14:10:39.264Z,30
2017-12-17T14:11:49.566Z,25
2017-12-17T14:12:59.895Z,25
2017-12-17T14:14:11.249Z,25
2017-12-17T14:15:21.266Z,25
2017-12-17T14:16:31.673Z,25
2017-12-17T14:17:41.959Z,25
2017-12-17T14:18:51.980Z,25
2017-12-17T14:20:02.288Z,20
2017-12-17T14:21:12.761Z,20
2017-12-17T14:22:23.113Z,20
2017-12-17T14:23:33.596Z,20
2017-12-17T14:24:43.914Z,15
2017-12-17T14:25:55.048Z,15
2017-12-17T14:27:06.327Z,15
2017-12-17T14:28:16.912Z,15
2017-12-17T14:29:27.217Z,15
2017-12-17T14:30:37.300Z,15
2017-12-17T14:31:47.645Z,15
2017-12-17T14:32:57.944Z,10
2017-12-17T14:34:08.285Z,10
2017-12-17T14:35:18.723Z,10
2017-12-17T14:36:28.999Z,10
2017-12-17T14:37:39.307Z,10
2017-12-17T14:38:49.382Z,10
2017-12-17T14:39:59.498Z,10
2017-12-17T14:41:09.794Z,10
2017-12-17T14:42:19.833Z,10
2017-12-17T14:43:30.171Z,10
2017-12-17T14:44:40.485Z,5
2017-12-17T14:45:50.844Z,5
2017-12-17T14:47:01.150Z,5
2017-12-17T14:48:11.921Z,5
2017-12-17T14:49:21.902Z,5
2017-12-17T14:50:32.192Z,5
2017-12-17T14:51:42.534Z,5
2017-12-17T14:52:52.801Z,5
2017-12-17T14:54:03.224Z,5
2017-12-17T14:55:13.606Z,5
2017-12-17T14:56:23.574Z,0
2017-12-17T14:57:33.904Z,0
2017-12-17T14:58:44.171Z,0
2017-12-17T14:59:54.454Z,0
2017-12-17T15:01:04.536Z,0
2017-12-17T15:02:14.836Z,0
2017-12-17T15:03:25.151Z,0
2017-12-17T15:04:35.275Z,0
2017-12-17T15:05:45.609Z,0
2017-12-17T15:06:55.381Z,0
2017-12-17T15:08:05.692Z,0
2017-12-17T15:09:15.802Z,0
2017-12-17T15:10:25.802Z,0
2017-12-17T15:11:35.843Z,0
2017-12-17T15:12:46.232Z,0
2017-12-17T15:13:56.518Z,0
2017-12-17T15:15:06.817Z,0
2017-12-17T15:16:17.119Z,0
2017-12-17T15:17:27.222Z,0
2017-12-17T15:18:37.533Z,0
2017-12-17T15:19:48.008Z,0
2017-12-17T15:20:58.375Z,0
2017-12-17T15:22:08.735Z,0
2017-12-17T15:23:20.217Z,0
2017-12-17T15:24:30.564Z,0
2017-12-17T15:25:40.864Z,0
2017-12-17T15:26:51.136Z,0
2017-12-17T15:28:01.649Z,0
2017-12-17T15:29:12.004Z,0
2017-12-17T15:30:22.075Z,0
2017-12-17T15:31:32.133Z,0
2017-12-17T15:32:42.580Z,0
2017-12-17T15:33:53.101Z,0
2017-12-17T15:35:03.414Z,0
2017-12-17T15:36:13.467Z,0
2017-12-17T15:37:23.873Z,0
2017-12-17T15:38:33.949Z,0
2017-12-17T15:39:44.014Z,0
2017-12-17T15:40:54.342Z,0
2017-12-17T15:42:04.765Z,0
2017-12-17T15:43:14.731Z,0
2017-12-17T15:44:24.517Z,0
2017-12-17T15:45:35.138Z,0
2017-12-17T15:46:45.210Z,0
2017-12-17T15:47:55.509Z,0
2017-12-17T15:49:05.823Z,0
2017-12-17T15:50:17.227Z,0
2017-12-17T15:51:27.582Z,0
2017-12-17T15:52:37.890Z,0
2017-12-17T15:53:48.204Z,0
2017-12-17T15:54:58.240Z,0
2017-12-17T15:56:08.319Z,0
2017-12-17T15:57:18.656Z,0
2017-12-17T15:58:28.425Z,0
2017-12-17T15:59:38.774Z,0
2017-12-17T16:00:49.071Z,0
2017-12-17T16:01:59.340Z,0
2017-12-17T16:03:09.659Z,0
2017-12-17T16:04:19.980Z,0
2017-12-17T16:05:30.283Z,0
2017-12-17T16:06:40.555Z,0
2017-12-17T16:07:51.840Z,0
2017-12-17T16:09:02.216Z,0
2017-12-17T16:10:12.553Z,0
2017-12-17T16:11:22.559Z,0
2017-12-17T16:12:32.770Z,0
2017-12-17T16:13:43.166Z,0
2017-12-17T16:14:53.193Z,0
2017-12-17T16:16:03.243Z,0
2017-12-17T16:17:13.552Z,0
2017-12-17T16:18:23.885Z,0
2017-12-17T16:19:35.180Z,0
2017-12-17T16:20:45.657Z,0
2017-12-17T16:21:55.694Z,0
2017-12-17T16:23:06.026Z,0
2017-12-17T16:24:16.341Z,0
2017-12-17T16:25:26.656Z,0
2017-12-17T16:26:36.766Z,0
2017-12-17T16:27:47.082Z,0
2017-12-17T16:28:57.372Z,0
2017-12-17T16:30:07.430Z,0
2017-12-17T16:31:17.814Z,0
2017-12-17T16:32:28.269Z,0
2017-12-17T16:33:38.621Z,0
2017-12-17T16:34:48.940Z,0
2017-12-17T16:35:59.384Z,0
2017-12-17T16:37:10.291Z,0
2017-12-17T16:38:20.608Z,0
2017-12-17T16:39:30.944Z,0
2017-12-17T16:40:41.356Z,0
2017-12-17T16:41:51.705Z,0
2017-12-17T16:43:02.061Z,0
2017-12-17T16:44:12.371Z,0
2017-12-17T16:45:22.440Z,0
2017-12-17T16:46:32.877Z,0
2017-12-17T16:47:43.179Z,0
2017-12-17T16:48:53.249Z,0
2017-12-17T16:50:03.751Z,0
2017-12-17T16:51:14.058Z,0
2017-12-17T16:52:24.462Z,0
2017-12-17T16:53:34.798Z,0
2017-12-17T16:54:45.134Z,0
2017-12-17T16:55:55.084Z,0
2017-12-17T16:57:05.364Z,0
2017-12-17T16:58:15.671Z,0